createdAt,value
2022-10-22T16:11:13.840Z,91.27
2022-10-22T16:13:44.325Z,93.33
2022-10-22T16:16:13.872Z,94.81
2022-10-22T16:18:43.415Z,94.78
2022-10-22T16:21:15.483Z,94.73
2022-10-22T16:23:46.104Z,96.11
2022-10-22T16:26:16.210Z,96.47
2022-10-22T16:28:45.585Z,94.92
2022-10-22T16:31:19.868Z,93.66
2022-10-22T16:33:50.374Z,93.27
2022-10-22T16:36:20.782Z,92.76
2022-10-22T16:38:57.314Z,95.76
2022-10-22T16:41:34.998Z,96.06
2022-10-22T16:44:07.937Z,97.36
2022-10-22T16:46:38.695Z,99.54
2022-10-22T16:49:08.379Z,100.00
2022-10-22T16:51:38.014Z,100.00
2022-10-22T16:54:09.708Z,100.00
2022-10-22T16:56:41.735Z,100.00
2022-10-22T16:59:11.229Z,100.00
2022-10-22T17:01:42.756Z,100.00
2022-10-22T17:04:12.459Z,100.00
2022-10-22T17:06:40.971Z,100.00
2022-10-22T17:09:08.954Z,100.00
2022-10-22T17:11:40.245Z,100.00
2022-10-22T17:14:15.147Z,100.00
2022-10-22T17:16:48.946Z,100.00
2022-10-22T17:19:18.421Z,100.00
2022-10-22T17:21:50.173Z,100.00
2022-10-22T17:24:19.698Z,100.00
2022-10-22T17:26:50.610Z,100.00
2022-10-22T17:29:22.025Z,100.00
2022-10-22T17:32:18.525Z,100.00
2022-10-22T17:34:48.200Z,100.00
2022-10-22T17:37:17.654Z,100.00
2022-10-22T17:39:49.911Z,100.00
2022-10-22T17:42:18.547Z,100.00
2022-10-22T17:44:47.977Z,100.00
2022-10-22T17:47:17.796Z,100.00
2022-10-22T17:49:46.456Z,100.00
2022-10-22T17:52:15.976Z,100.00
2022-10-22T17:54:45.057Z,100.00
2022-10-22T17:57:13.984Z,100.00
2022-10-22T17:59:43.457Z,100.00
2022-10-22T18:02:18.230Z,100.00
2022-10-22T18:04:53.577Z,100.00
2022-10-22T18:07:23.544Z,100.00
2022-10-22T18:09:53.063Z,100.00
2022-10-22T18:12:22.964Z,100.00
2022-10-22T18:14:52.738Z,100.00
2022-10-22T18:17:20.470Z,100.00
2022-10-22T18:19:49.632Z,100.00
2022-10-22T18:22:19.341Z,100.00
2022-10-22T18:24:49.367Z,100.00
2022-10-22T18:27:18.791Z,100.00
2022-10-22T18:29:51.050Z,100.00
2022-10-22T18:32:19.768Z,100.00
2022-10-22T18:34:48.403Z,100.00
2022-10-22T18:37:16.238Z,100.00
2022-10-22T18:39:45.708Z,100.00
2022-10-22T18:45:05.227Z,100.00
2022-10-22T18:47:33.963Z,100.00
2022-10-22T18:50:03.572Z,100.00
2022-10-22T18:52:33.404Z,100.00
2022-10-22T18:55:03.496Z,100.00
2022-10-22T18:57:32.728Z,100.00
2022-10-22T19:00:02.719Z,100.00
2022-10-22T19:02:32.173Z,100.00
2022-10-22T19:05:00.779Z,100.00
2022-10-22T19:07:31.893Z,100.00
2022-10-22T19:10:00.696Z,100.00
2022-10-22T19:12:30.169Z,100.00
2022-10-22T19:14:58.883Z,100.00
2022-10-22T19:17:28.216Z,100.00
2022-10-22T19:19:57.843Z,100.00
2022-10-22T19:22:26.594Z,100.00
2022-10-22T19:24:56.342Z,100.00
2022-10-22T19:27:26.240Z,100.00
2022-10-22T19:29:55.710Z,100.00
2022-10-22T19:32:26.311Z,100.00
2022-10-22T19:34:58.363Z,100.00
2022-10-22T19:37:27.014Z,100.00
2022-10-22T19:39:55.602Z,100.00
2022-10-22T19:42:24.222Z,100.00
2022-10-22T19:44:53.720Z,100.00
2022-10-22T19:47:23.215Z,100.00
2022-10-22T19:49:52.899Z,100.00
2022-10-22T19:52:22.411Z,100.00
2022-10-22T19:54:51.061Z,100.00
2022-10-22T19:57:20.572Z,100.00
2022-10-22T19:59:50.163Z,100.00
2022-10-22T20:02:19.634Z,100.00
2022-10-22T20:04:49.881Z,100.00
2022-10-22T20:07:19.736Z,100.00
2022-10-22T20:09:49.141Z,100.00
2022-10-22T20:12:18.556Z,100.00
2022-10-22T20:14:48.040Z,100.00
2022-10-22T20:17:16.651Z,100.00
2022-10-22T20:19:45.318Z,100.00
2022-10-22T20:22:17.912Z,100.00
2022-10-22T20:24:47.602Z,100.00
2022-10-22T20:27:17.133Z,100.00
2022-10-22T20:29:46.646Z,100.00
2022-10-22T20:32:16.524Z,100.00
2022-10-22T20:34:46.023Z,100.00
2022-10-22T20:37:15.484Z,100.00
2022-10-22T20:39:44.914Z,100.00
2022-10-22T20:42:15.508Z,100.00
2022-10-22T20:44:44.266Z,100.00
2022-10-22T20:47:13.772Z,100.00
2022-10-22T20:49:43.301Z,100.00
2022-10-22T20:52:12.754Z,100.00
2022-10-22T20:54:44.228Z,100.00
2022-10-22T20:57:14.342Z,100.00
2022-10-22T20:59:44.259Z,100.00
2022-10-22T21:02:13.680Z,100.00
2022-10-22T21:04:45.632Z,100.00
2022-10-22T21:07:15.998Z,100.00
2022-10-22T21:09:45.523Z,100.00
2022-10-22T21:12:14.910Z,100.00
2022-10-22T21:14:44.439Z,100.00
2022-10-22T21:17:14.231Z,100.00
2022-10-22T21:19:42.929Z,100.00
2022-10-22T21:22:12.369Z,100.00
2022-10-22T21:24:42.402Z,100.00
2022-10-22T21:27:11.941Z,100.00
2022-10-22T21:29:40.668Z,100.00
2022-10-22T21:32:10.090Z,100.00
2022-10-22T21:34:39.619Z,100.00
2022-10-22T21:37:08.291Z,100.00
2022-10-22T21:39:41.279Z,100.00
2022-10-22T21:42:15.134Z,100.00
2022-10-22T21:44:44.618Z,100.00
2022-10-22T21:47:14.063Z,100.00
2022-10-22T21:49:43.898Z,100.00
2022-10-22T21:52:12.738Z,100.00
2022-10-22T21:54:42.232Z,100.00
2022-10-22T21:57:11.710Z,100.00
2022-10-22T21:59:41.448Z,100.00
2022-10-22T22:02:11.182Z,100.00
2022-10-22T22:04:40.695Z,100.00
2022-10-22T22:07:10.119Z,100.00
2022-10-22T22:09:38.859Z,100.00
2022-10-22T22:12:09.161Z,100.00
2022-10-22T22:14:38.228Z,100.00
2022-10-22T22:17:07.945Z,100.00
2022-10-22T22:19:39.147Z,100.00
2022-10-22T22:22:08.641Z,100.00
2022-10-22T22:24:40.001Z,100.00
2022-10-22T22:27:09.484Z,100.00
2022-10-22T22:29:39.180Z,100.00
2022-10-22T22:32:08.644Z,100.00
2022-10-22T22:34:38.131Z,100.00
2022-10-22T22:37:08.554Z,100.00
2022-10-22T22:39:38.311Z,100.00
2022-10-22T22:42:07.749Z,100.00
2022-10-22T22:44:38.877Z,100.00
2022-10-22T22:47:08.336Z,100.00
2022-10-22T22:49:37.931Z,100.00
2022-10-22T22:52:07.529Z,100.00
2022-10-22T22:54:36.999Z,100.00
2022-10-22T22:57:06.478Z,100.00
2022-10-22T22:59:35.917Z,100.00
2022-10-22T23:02:05.384Z,100.00
2022-10-22T23:04:35.119Z,100.00
2022-10-22T23:07:04.590Z,100.00
2022-10-22T23:09:34.042Z,100.00
2022-10-22T23:12:04.024Z,100.00
2022-10-22T23:14:33.515Z,100.00
2022-10-22T23:17:03.124Z,100.00
2022-10-22T23:19:32.678Z,100.00
2022-10-22T23:22:02.236Z,100.00
2022-10-22T23:24:31.764Z,100.00
2022-10-22T23:27:04.408Z,100.00
2022-10-22T23:29:38.336Z,100.00
2022-10-22T23:32:14.440Z,100.00
2022-10-22T23:34:44.522Z,100.00
2022-10-22T23:37:13.399Z,100.00
2022-10-22T23:39:42.860Z,100.00
2022-10-22T23:42:12.319Z,100.00
2022-10-22T23:44:41.926Z,100.00
2022-10-22T23:47:10.570Z,100.00
2022-10-22T23:49:40.065Z,100.00
2022-10-22T23:52:08.709Z,100.00
2022-10-22T23:54:38.125Z,100.00
2022-10-22T23:57:07.595Z,100.00
2022-10-22T23:59:36.997Z,100.00
